PWSweather.com
Personal Weather Stations
Station Observations
KAZTUCSO57
Countryside Manor, Tucson, AZ 85742

Countryside ManorTucson, AZ 85742

Lat: 32.3692, Lon: -111.066

Elevation: 2307

Station Type: Davis VP Pro+ 6163

http://frogville.us

Latest ConditionsUpdated 6:50:00 PM MST Tuesday, Jun 28, 2016
Currently Today's Max Today's Min Today's Average
Temperature 92.0°F33.3°C 106.3°F41.3°C 84.2°F29.0°C 93.4°F34.1°C
Dew Point 62.8°F17.1°C 63.4°F17.4°C 56.0°F13.3°C 59.5°F15.3°C
Winds 1.2 mph ESE1.9 kmh ESE 5.8 mph E9.3 kmh E - 1.5 mph 2.4 kmh
Wind Gusts 3.5 mph5.6 kmh 12.7 mph20.4 kmh - -
Humidity 38% 44% 20% 33%
Pressure 29.66 in1004.4 mb 29.82 in1009.8 mb 29.65 in1004.1 mb -
Hour Temp Dew Point Humidity Winds Wind Gusts Pressure Precip Precip Rate Daily Precip Total
06:50 PM 92.0°F33.3°C 62.8°F17.1°C 38% 1.2 mph ESE1.9 kmh ESE 3.5 mph5.6 kmh 29.66 in1004.4 mb - 0.00 in0.0 mm 0.00 in0.0 mm
06:40 PM 92.3°F33.5°C 63.0°F17.2°C 38% 1.2 mph E1.9 kmh E 2.3 mph3.7 kmh 29.66 in1004.4 mb - 0.00 in0.0 mm 0.00 in0.0 mm
06:30 PM 92.0°F33.3°C 62.0°F16.7°C 37% 1.2 mph E1.9 kmh E 2.3 mph3.7 kmh 29.66 in1004.4 mb - 0.00 in0.0 mm 0.00 in0.0 mm
06:20 PM 91.8°F33.2°C 62.6°F17.0°C 38% 1.2 mph NE1.9 kmh NE 2.3 mph3.7 kmh 29.66 in1004.4 mb - 0.00 in0.0 mm 0.00 in0.0 mm
06:10 PM 91.9°F33.3°C 63.4°F17.4°C 39% Calm Calm 1.2 mph1.9 kmh 29.66 in1004.4 mb - 0.00 in0.0 mm 0.00 in0.0 mm
06:00 PM 91.7°F33.2°C 61.7°F16.5°C 37% Calm Calm -- 29.65 in1004.1 mb - 0.00 in0.0 mm 0.00 in0.0 mm
05:50 PM 91.6°F33.1°C 61.6°F16.4°C 37% 1.2 mph NNE1.9 kmh NNE 2.3 mph3.7 kmh 29.66 in1004.4 mb - 0.00 in0.0 mm 0.00 in0.0 mm
05:40 PM 91.6°F33.1°C 61.6°F16.4°C 37% Calm Calm 2.3 mph3.7 kmh 29.66 in1004.4 mb - 0.00 in0.0 mm 0.00 in0.0 mm
05:30 PM 91.7°F33.2°C 62.5°F16.9°C 38% 1.2 mph NE1.9 kmh NE 3.5 mph5.6 kmh 29.67 in1004.7 mb - 0.00 in0.0 mm 0.00 in0.0 mm
05:20 PM 91.7°F33.2°C 61.7°F16.5°C 37% 1.2 mph WSW1.9 kmh WSW 1.2 mph1.9 kmh 29.67 in1004.7 mb - 0.00 in0.0 mm 0.00 in0.0 mm
05:10 PM 91.4°F33.0°C 61.5°F16.4°C 37% Calm Calm 1.2 mph1.9 kmh 29.69 in1005.4 mb - 0.00 in0.0 mm 0.00 in0.0 mm
05:00 PM 91.2°F32.9°C 59.7°F15.4°C 35% Calm Calm 1.2 mph1.9 kmh 29.69 in1005.4 mb - 0.00 in0.0 mm 0.00 in0.0 mm
04:50 PM 90.9°F32.7°C 58.7°F14.8°C 34% Calm Calm 1.2 mph1.9 kmh 29.69 in1005.4 mb - 0.00 in0.0 mm 0.00 in0.0 mm
04:40 PM 90.8°F32.7°C 59.4°F15.2°C 35% 2.3 mph SW3.7 kmh SW 3.5 mph5.6 kmh 29.69 in1005.4 mb - 0.00 in0.0 mm 0.00 in0.0 mm
04:30 PM 91.0°F32.8°C 61.1°F16.2°C 37% 1.2 mph WSW1.9 kmh WSW 3.5 mph5.6 kmh 29.68 in1005.1 mb - 0.00 in0.0 mm 0.00 in0.0 mm
04:20 PM 92.3°F33.5°C 61.5°F16.4°C 36% 4.6 mph SSW7.4 kmh SSW 5.8 mph9.3 kmh 29.68 in1005.1 mb - 0.00 in0.0 mm 0.00 in0.0 mm
04:10 PM 93.3°F34.1°C 59.9°F15.5°C 33% 3.5 mph SE5.6 kmh SE 5.8 mph9.3 kmh 29.68 in1005.1 mb - 0.00 in0.0 mm 0.00 in0.0 mm
04:00 PM 93.9°F34.4°C 59.6°F15.3°C 32% 4.6 mph ESE7.4 kmh ESE 12.7 mph20.4 kmh 29.67 in1004.7 mb - 0.00 in0.0 mm 0.00 in0.0 mm
03:50 PM 95.6°F35.3°C 60.2°F15.7°C 31% 3.5 mph E5.6 kmh E 12.7 mph20.4 kmh 29.67 in1004.7 mb - 0.00 in0.0 mm 0.00 in0.0 mm
03:40 PM 100.3°F37.9°C 61.3°F16.3°C 28% 5.8 mph E9.3 kmh E 12.7 mph20.4 kmh 29.67 in1004.7 mb - 0.00 in0.0 mm 0.00 in0.0 mm
03:30 PM 102.8°F39.3°C 56.6°F13.7°C 22% 2.3 mph E3.7 kmh E 4.6 mph7.4 kmh 29.67 in1004.7 mb - 0.00 in0.0 mm 0.00 in0.0 mm
03:20 PM 103.7°F39.8°C 57.4°F14.1°C 22% 1.2 mph ESE1.9 kmh ESE 3.5 mph5.6 kmh 29.67 in1004.7 mb - 0.00 in0.0 mm 0.00 in0.0 mm
03:10 PM 103.6°F39.8°C 56.0°F13.3°C 21% 3.5 mph SSW5.6 kmh SSW 3.5 mph5.6 kmh 29.67 in1004.7 mb - 0.00 in0.0 mm 0.00 in0.0 mm
03:00 PM 103.3°F39.6°C 57.1°F13.9°C 22% Calm Calm 1.2 mph1.9 kmh 29.68 in1005.1 mb - 0.00 in0.0 mm 0.00 in0.0 mm
02:50 PM 103.2°F39.6°C 58.2°F14.6°C 23% 1.2 mph WSW1.9 kmh WSW 3.5 mph5.6 kmh 29.67 in1004.7 mb - 0.00 in0.0 mm 0.00 in0.0 mm
02:40 PM 103.7°F39.8°C 58.6°F14.8°C 23% 2.3 mph WSW3.7 kmh WSW 3.5 mph5.6 kmh 29.68 in1005.1 mb - 0.00 in0.0 mm 0.00 in0.0 mm
02:30 PM 104.7°F40.4°C 58.2°F14.6°C 22% 2.3 mph WNW3.7 kmh WNW 6.9 mph11.1 kmh 29.68 in1005.1 mb - 0.00 in0.0 mm 0.00 in0.0 mm
02:20 PM 105.3°F40.7°C 57.4°F14.1°C 21% 1.2 mph WNW1.9 kmh WNW 2.3 mph3.7 kmh 29.69 in1005.4 mb - 0.00 in0.0 mm 0.00 in0.0 mm
02:10 PM 106.0°F41.1°C 56.6°F13.7°C 20% 2.3 mph N3.7 kmh N 3.5 mph5.6 kmh 29.69 in1005.4 mb - 0.00 in0.0 mm 0.00 in0.0 mm
02:00 PM 106.3°F41.3°C 58.3°F14.6°C 21% 2.3 mph WSW3.7 kmh WSW 3.5 mph5.6 kmh 29.70 in1005.8 mb - 0.00 in0.0 mm 0.00 in0.0 mm
01:50 PM 105.7°F40.9°C 59.0°F15.0°C 22% 2.3 mph SW3.7 kmh SW 3.5 mph5.6 kmh 29.70 in1005.8 mb - 0.00 in0.0 mm 0.00 in0.0 mm
01:40 PM 105.2°F40.7°C 57.3°F14.1°C 21% 1.2 mph W1.9 kmh W 3.5 mph5.6 kmh 29.71 in1006.1 mb - 0.00 in0.0 mm 0.00 in0.0 mm
01:30 PM 105.4°F40.8°C 57.5°F14.2°C 21% 2.3 mph E3.7 kmh E 3.5 mph5.6 kmh 29.72 in1006.4 mb - 0.00 in0.0 mm 0.00 in0.0 mm
01:20 PM 104.5°F40.3°C 58.1°F14.5°C 22% 1.2 mph SSE1.9 kmh SSE 3.5 mph5.6 kmh 29.72 in1006.4 mb - 0.00 in0.0 mm 0.00 in0.0 mm
01:10 PM 104.7°F40.4°C 58.2°F14.6°C 22% 2.3 mph SE3.7 kmh SE 3.5 mph5.6 kmh 29.73 in1006.8 mb - 0.00 in0.0 mm 0.00 in0.0 mm
01:00 PM 105.5°F40.8°C 57.6°F14.2°C 21% 3.5 mph NNE5.6 kmh NNE 4.6 mph7.4 kmh 29.73 in1006.8 mb - 0.00 in0.0 mm 0.00 in0.0 mm
12:50 PM 104.8°F40.4°C 58.3°F14.6°C 22% 1.2 mph N1.9 kmh N 3.5 mph5.6 kmh 29.74 in1007.1 mb - 0.00 in0.0 mm 0.00 in0.0 mm
12:40 PM 104.5°F40.3°C 59.3°F15.2°C 23% 1.2 mph WSW1.9 kmh WSW 2.3 mph3.7 kmh 29.74 in1007.1 mb - 0.00 in0.0 mm 0.00 in0.0 mm
12:30 PM 103.4°F39.7°C 58.4°F14.7°C 23% Calm Calm 2.3 mph3.7 kmh 29.75 in1007.5 mb - 0.00 in0.0 mm 0.00 in0.0 mm
12:20 PM 101.9°F38.8°C 59.5°F15.3°C 25% Calm Calm 1.2 mph1.9 kmh 29.75 in1007.5 mb - 0.00 in0.0 mm 0.00 in0.0 mm
12:10 PM 101.9°F38.8°C 58.3°F14.6°C 24% 1.2 mph ENE1.9 kmh ENE 3.5 mph5.6 kmh 29.76 in1007.8 mb - 0.00 in0.0 mm 0.00 in0.0 mm
12:00 PM 101.8°F38.8°C 58.2°F14.6°C 24% 1.2 mph SE1.9 kmh SE 2.3 mph3.7 kmh 29.76 in1007.8 mb - 0.00 in0.0 mm 0.00 in0.0 mm
11:50 AM 102.4°F39.1°C 58.8°F14.9°C 24% 2.3 mph SE3.7 kmh SE 4.6 mph7.4 kmh 29.76 in1007.8 mb - 0.00 in0.0 mm 0.00 in0.0 mm
11:40 AM 101.8°F38.8°C 58.3°F14.6°C 24% 1.2 mph SSW1.9 kmh SSW 3.5 mph5.6 kmh 29.77 in1008.1 mb - 0.00 in0.0 mm 0.00 in0.0 mm
11:30 AM 100.8°F38.2°C 58.6°F14.8°C 25% 1.2 mph NE1.9 kmh NE 3.5 mph5.6 kmh 29.77 in1008.1 mb - 0.00 in0.0 mm 0.00 in0.0 mm
11:20 AM 100.1°F37.8°C 59.1°F15.1°C 26% 1.2 mph ENE1.9 kmh ENE 3.5 mph5.6 kmh 29.78 in1008.5 mb - 0.00 in0.0 mm 0.00 in0.0 mm
11:10 AM 99.4°F37.4°C 59.5°F15.3°C 27% Calm Calm 2.3 mph3.7 kmh 29.78 in1008.5 mb - 0.00 in0.0 mm 0.00 in0.0 mm
11:00 AM 99.3°F37.4°C 59.4°F15.2°C 27% 1.2 mph SW1.9 kmh SW 2.3 mph3.7 kmh 29.79 in1008.8 mb - 0.00 in0.0 mm 0.00 in0.0 mm
10:50 AM 99.0°F37.2°C 59.2°F15.1°C 27% 2.3 mph SSW3.7 kmh SSW 5.8 mph9.3 kmh 29.79 in1008.8 mb - 0.00 in0.0 mm 0.00 in0.0 mm
10:40 AM 98.8°F37.1°C 59.0°F15.0°C 27% 3.5 mph SSE5.6 kmh SSE 8.1 mph13.0 kmh 29.79 in1008.8 mb - 0.00 in0.0 mm 0.00 in0.0 mm
10:30 AM 98.7°F37.1°C 58.9°F14.9°C 27% 1.2 mph SE1.9 kmh SE 4.6 mph7.4 kmh 29.80 in1009.1 mb - 0.00 in0.0 mm 0.00 in0.0 mm
10:20 AM 98.3°F36.8°C 58.6°F14.8°C 27% 2.3 mph SSW3.7 kmh SSW 5.8 mph9.3 kmh 29.80 in1009.1 mb - 0.00 in0.0 mm 0.00 in0.0 mm
10:10 AM 98.1°F36.7°C 59.5°F15.3°C 28% 2.3 mph SSE3.7 kmh SSE 3.5 mph5.6 kmh 29.80 in1009.1 mb - 0.00 in0.0 mm 0.00 in0.0 mm
10:00 AM 97.1°F36.2°C 58.5°F14.7°C 28% 2.3 mph SSE3.7 kmh SSE 3.5 mph5.6 kmh 29.80 in1009.1 mb - 0.00 in0.0 mm 0.00 in0.0 mm
09:50 AM 96.8°F36.0°C 58.3°F14.6°C 28% 4.6 mph SW7.4 kmh SW 4.6 mph7.4 kmh 29.80 in1009.1 mb - 0.00 in0.0 mm 0.00 in0.0 mm
09:40 AM 96.9°F36.1°C 58.4°F14.7°C 28% 3.5 mph SSE5.6 kmh SSE 4.6 mph7.4 kmh 29.81 in1009.5 mb - 0.00 in0.0 mm 0.00 in0.0 mm
09:30 AM 96.2°F35.7°C 58.8°F14.9°C 29% 2.3 mph SE3.7 kmh SE 4.6 mph7.4 kmh 29.81 in1009.5 mb - 0.00 in0.0 mm 0.00 in0.0 mm
09:20 AM 96.1°F35.6°C 58.7°F14.8°C 29% 1.2 mph SE1.9 kmh SE 3.5 mph5.6 kmh 29.81 in1009.5 mb - 0.00 in0.0 mm 0.00 in0.0 mm
09:10 AM 95.5°F35.3°C 60.1°F15.6°C 31% 1.2 mph S1.9 kmh S 3.5 mph5.6 kmh 29.81 in1009.5 mb - 0.00 in0.0 mm 0.00 in0.0 mm
09:00 AM 95.3°F35.2°C 59.8°F15.4°C 31% 1.2 mph S1.9 kmh S 4.6 mph7.4 kmh 29.81 in1009.5 mb - 0.00 in0.0 mm 0.00 in0.0 mm
08:50 AM 95.0°F35.0°C 59.6°F15.3°C 31% 1.2 mph SW1.9 kmh SW 3.5 mph5.6 kmh 29.81 in1009.5 mb - 0.00 in0.0 mm 0.00 in0.0 mm
08:40 AM 94.9°F34.9°C 59.5°F15.3°C 31% 1.2 mph SW1.9 kmh SW 5.8 mph9.3 kmh 29.81 in1009.5 mb - 0.00 in0.0 mm 0.00 in0.0 mm
08:30 AM 94.3°F34.6°C 59.9°F15.5°C 32% 1.2 mph ESE1.9 kmh ESE 4.6 mph7.4 kmh 29.81 in1009.5 mb - 0.00 in0.0 mm 0.00 in0.0 mm
08:20 AM 93.7°F34.3°C 60.3°F15.7°C 33% 2.3 mph SE3.7 kmh SE 4.6 mph7.4 kmh 29.81 in1009.5 mb - 0.00 in0.0 mm 0.00 in0.0 mm
08:10 AM 93.2°F34.0°C 59.8°F15.4°C 33% 1.2 mph SE1.9 kmh SE 6.9 mph11.1 kmh 29.82 in1009.8 mb - 0.00 in0.0 mm 0.00 in0.0 mm
08:00 AM 92.5°F33.6°C 59.2°F15.1°C 33% 3.5 mph ENE5.6 kmh ENE 4.6 mph7.4 kmh 29.82 in1009.8 mb - 0.00 in0.0 mm 0.00 in0.0 mm
07:50 AM 91.5°F33.1°C 60.0°F15.6°C 35% 2.3 mph SE3.7 kmh SE 3.5 mph5.6 kmh 29.81 in1009.5 mb - 0.00 in0.0 mm 0.00 in0.0 mm
07:40 AM 90.7°F32.6°C 60.1°F15.6°C 36% 1.2 mph SE1.9 kmh SE 4.6 mph7.4 kmh 29.81 in1009.5 mb - 0.00 in0.0 mm 0.00 in0.0 mm
07:30 AM 90.3°F32.4°C 60.5°F15.8°C 37% 3.5 mph SSE5.6 kmh SSE 4.6 mph7.4 kmh 29.81 in1009.5 mb - 0.00 in0.0 mm 0.00 in0.0 mm
07:20 AM 89.8°F32.1°C 60.8°F16.0°C 38% 3.5 mph SE5.6 kmh SE 4.6 mph7.4 kmh 29.81 in1009.5 mb - 0.00 in0.0 mm 0.00 in0.0 mm
07:10 AM 89.2°F31.8°C 61.0°F16.1°C 39% 3.5 mph SE5.6 kmh SE 10.4 mph16.7 kmh 29.81 in1009.5 mb - 0.00 in0.0 mm 0.00 in0.0 mm
07:00 AM 88.4°F31.3°C 60.3°F15.7°C 39% 1.2 mph E1.9 kmh E 3.5 mph5.6 kmh 29.81 in1009.5 mb - 0.00 in0.0 mm 0.00 in0.0 mm
06:50 AM 87.8°F31.0°C 60.4°F15.8°C 40% 1.2 mph E1.9 kmh E 6.9 mph11.1 kmh 29.81 in1009.5 mb - 0.00 in0.0 mm 0.00 in0.0 mm
06:40 AM 87.1°F30.6°C 59.9°F15.5°C 40% 2.3 mph SE3.7 kmh SE 3.5 mph5.6 kmh 29.80 in1009.1 mb - 0.00 in0.0 mm 0.00 in0.0 mm
06:30 AM 86.4°F30.2°C 59.9°F15.5°C 41% 2.3 mph SE3.7 kmh SE 4.6 mph7.4 kmh 29.80 in1009.1 mb - 0.00 in0.0 mm 0.00 in0.0 mm
06:20 AM 85.6°F29.8°C 59.2°F15.1°C 41% 1.2 mph ESE1.9 kmh ESE 3.5 mph5.6 kmh 29.80 in1009.1 mb - 0.00 in0.0 mm 0.00 in0.0 mm
06:10 AM 84.8°F29.3°C 59.2°F15.1°C 42% 2.3 mph SE3.7 kmh SE 2.3 mph3.7 kmh 29.80 in1009.1 mb - 0.00 in0.0 mm 0.00 in0.0 mm
06:00 AM 84.5°F29.2°C 59.6°F15.3°C 43% 1.2 mph E1.9 kmh E 3.5 mph5.6 kmh 29.80 in1009.1 mb - 0.00 in0.0 mm 0.00 in0.0 mm
05:50 AM 84.5°F29.2°C 59.5°F15.3°C 43% 1.2 mph SE1.9 kmh SE 2.3 mph3.7 kmh 29.79 in1008.8 mb - 0.00 in0.0 mm 0.00 in0.0 mm
05:40 AM 84.5°F29.2°C 59.6°F15.3°C 43% Calm Calm 3.5 mph5.6 kmh 29.79 in1008.8 mb - 0.00 in0.0 mm 0.00 in0.0 mm
05:30 AM 84.6°F29.2°C 59.6°F15.3°C 43% 2.3 mph ENE3.7 kmh ENE 3.5 mph5.6 kmh 29.79 in1008.8 mb - 0.00 in0.0 mm 0.00 in0.0 mm
05:20 AM 84.5°F29.2°C 59.5°F15.3°C 43% 2.3 mph ESE3.7 kmh ESE 4.6 mph7.4 kmh 29.78 in1008.5 mb - 0.00 in0.0 mm 0.00 in0.0 mm
05:10 AM 84.4°F29.1°C 59.5°F15.3°C 43% 1.2 mph E1.9 kmh E 3.5 mph5.6 kmh 29.78 in1008.5 mb - 0.00 in0.0 mm 0.00 in0.0 mm
05:00 AM 84.2°F29.0°C 59.9°F15.5°C 44% 1.2 mph ESE1.9 kmh ESE 2.3 mph3.7 kmh 29.77 in1008.1 mb - 0.00 in0.0 mm 0.00 in0.0 mm
04:50 AM 84.3°F29.1°C 60.0°F15.6°C 44% 1.2 mph SE1.9 kmh SE 1.2 mph1.9 kmh 29.77 in1008.1 mb - 0.00 in0.0 mm 0.00 in0.0 mm
04:40 AM 85.0°F29.4°C 59.3°F15.2°C 42% Calm Calm -- 29.77 in1008.1 mb - 0.00 in0.0 mm 0.00 in0.0 mm
04:30 AM 85.4°F29.7°C 58.3°F14.6°C 40% Calm Calm -- 29.77 in1008.1 mb - 0.00 in0.0 mm 0.00 in0.0 mm
04:20 AM 85.6°F29.8°C 57.8°F14.3°C 39% Calm Calm -- 29.76 in1007.8 mb - 0.00 in0.0 mm 0.00 in0.0 mm
04:10 AM 86.0°F30.0°C 58.8°F14.9°C 40% Calm Calm -- 29.76 in1007.8 mb - 0.00 in0.0 mm 0.00 in0.0 mm
04:00 AM 86.3°F30.2°C 59.1°F15.1°C 40% Calm Calm 1.2 mph1.9 kmh 29.76 in1007.8 mb - 0.00 in0.0 mm 0.00 in0.0 mm
03:50 AM 86.5°F30.3°C 60.0°F15.6°C 41% Calm Calm 1.2 mph1.9 kmh 29.76 in1007.8 mb - 0.00 in0.0 mm 0.00 in0.0 mm
03:40 AM 86.6°F30.3°C 59.4°F15.2°C 40% 1.2 mph E1.9 kmh E 1.2 mph1.9 kmh 29.76 in1007.8 mb - 0.00 in0.0 mm 0.00 in0.0 mm
03:30 AM 86.7°F30.4°C 59.5°F15.3°C 40% 1.2 mph E1.9 kmh E 3.5 mph5.6 kmh 29.76 in1007.8 mb - 0.00 in0.0 mm 0.00 in0.0 mm
03:20 AM 86.8°F30.4°C 59.6°F15.3°C 40% 1.2 mph ESE1.9 kmh ESE 3.5 mph5.6 kmh 29.75 in1007.5 mb - 0.00 in0.0 mm 0.00 in0.0 mm
03:10 AM 86.8°F30.4°C 59.6°F15.3°C 40% 1.2 mph E1.9 kmh E 3.5 mph5.6 kmh 29.75 in1007.5 mb - 0.00 in0.0 mm 0.00 in0.0 mm
03:00 AM 86.9°F30.5°C 60.4°F15.8°C 41% 1.2 mph ESE1.9 kmh ESE 2.3 mph3.7 kmh 29.75 in1007.5 mb - 0.00 in0.0 mm 0.00 in0.0 mm
02:50 AM 86.9°F30.5°C 61.0°F16.1°C 42% 1.2 mph ESE1.9 kmh ESE 2.3 mph3.7 kmh 29.75 in1007.5 mb - 0.00 in0.0 mm 0.00 in0.0 mm
02:40 AM 87.1°F30.6°C 61.2°F16.2°C 42% 2.3 mph E3.7 kmh E 4.6 mph7.4 kmh 29.75 in1007.5 mb - 0.00 in0.0 mm 0.00 in0.0 mm
02:30 AM 87.4°F30.8°C 60.8°F16.0°C 41% 1.2 mph SE1.9 kmh SE 3.5 mph5.6 kmh 29.75 in1007.5 mb - 0.00 in0.0 mm 0.00 in0.0 mm
02:20 AM 87.4°F30.8°C 60.1°F15.6°C 40% 1.2 mph E1.9 kmh E 2.3 mph3.7 kmh 29.75 in1007.5 mb - 0.00 in0.0 mm 0.00 in0.0 mm
02:10 AM 87.3°F30.7°C 58.6°F14.8°C 38% Calm Calm 3.5 mph5.6 kmh 29.75 in1007.5 mb - 0.00 in0.0 mm 0.00 in0.0 mm
02:00 AM 87.1°F30.6°C 57.7°F14.3°C 37% Calm Calm 1.2 mph1.9 kmh 29.75 in1007.5 mb - 0.00 in0.0 mm 0.00 in0.0 mm
01:50 AM 87.0°F30.6°C 58.3°F14.6°C 38% 1.2 mph E1.9 kmh E 1.2 mph1.9 kmh 29.75 in1007.5 mb - 0.00 in0.0 mm 0.00 in0.0 mm
01:40 AM 87.3°F30.7°C 60.0°F15.6°C 40% 1.2 mph E1.9 kmh E 2.3 mph3.7 kmh 29.75 in1007.5 mb - 0.00 in0.0 mm 0.00 in0.0 mm
01:30 AM 87.4°F30.8°C 59.4°F15.2°C 39% Calm Calm -- 29.75 in1007.5 mb - 0.00 in0.0 mm 0.00 in0.0 mm
01:20 AM 87.2°F30.7°C 58.5°F14.7°C 38% 1.2 mph SE1.9 kmh SE 2.3 mph3.7 kmh 29.75 in1007.5 mb - 0.00 in0.0 mm 0.00 in0.0 mm
01:10 AM 86.9°F30.5°C 58.2°F14.6°C 38% 1.2 mph SSW1.9 kmh SSW 3.5 mph5.6 kmh 29.75 in1007.5 mb - 0.00 in0.0 mm 0.00 in0.0 mm
01:00 AM 86.8°F30.4°C 58.1°F14.5°C 38% 1.2 mph SSE1.9 kmh SSE 2.3 mph3.7 kmh 29.76 in1007.8 mb - 0.00 in0.0 mm 0.00 in0.0 mm
12:50 AM 86.9°F30.5°C 59.0°F15.0°C 39% Calm Calm -- 29.76 in1007.8 mb - 0.00 in0.0 mm 0.00 in0.0 mm
12:40 AM 87.1°F30.6°C 59.1°F15.1°C 39% Calm Calm -- 29.75 in1007.5 mb - 0.00 in0.0 mm 0.00 in0.0 mm
12:30 AM 87.4°F30.8°C 60.1°F15.6°C 40% Calm Calm 1.2 mph1.9 kmh 29.76 in1007.8 mb - 0.00 in0.0 mm 0.00 in0.0 mm
12:20 AM 87.9°F31.1°C 59.1°F15.1°C 38% Calm Calm -- 29.76 in1007.8 mb - 0.00 in0.0 mm 0.00 in0.0 mm
12:10 AM 88.4°F31.3°C 59.5°F15.3°C 38% 1.2 mph SE1.9 kmh SE 2.3 mph3.7 kmh 29.76 in1007.8 mb - 0.00 in0.0 mm 0.00 in0.0 mm
12:00 AM 89.0°F31.7°C 58.6°F14.8°C 36% Calm Calm -- 29.76 in1007.8 mb - 0.00 in0.0 mm 0.00 in0.0 mm